sensor_id;sensor_type;location;lat;lon;timestamp;P1;durP1;ratioP1;P2;durP2;ratioP2
10894;SDS011;5500;49.886;8.074;2023-05-10T00:01:12;2.93;;;0.60;;
10894;SDS011;5500;49.886;8.074;2023-05-10T00:03:40;0.50;;;0.50;;
10894;SDS011;5500;49.886;8.074;2023-05-10T00:06:08;0.93;;;0.67;;
10894;SDS011;5500;49.886;8.074;2023-05-10T00:08:37;0.77;;;0.60;;
10894;SDS011;5500;49.886;8.074;2023-05-10T00:11:05;0.50;;;0.50;;
10894;SDS011;5500;49.886;8.074;2023-05-10T00:13:32;0.50;;;0.50;;
10894;SDS011;5500;49.886;8.074;2023-05-10T00:16:00;0.60;;;0.53;;
10894;SDS011;5500;49.886;8.074;2023-05-10T00:18:28;1.30;;;0.40;;
10894;SDS011;5500;49.886;8.074;2023-05-10T00:20:55;0.30;;;0.30;;
10894;SDS011;5500;49.886;8.074;2023-05-10T00:23:23;1.50;;;0.50;;
10894;SDS011;5500;49.886;8.074;2023-05-10T00:25:52;0.77;;;0.47;;
10894;SDS011;5500;49.886;8.074;2023-05-10T00:28:19;0.83;;;0.53;;
10894;SDS011;5500;49.886;8.074;2023-05-10T00:30:47;0.40;;;0.40;;
10894;SDS011;5500;49.886;8.074;2023-05-10T00:33:15;0.47;;;0.47;;
10894;SDS011;5500;49.886;8.074;2023-05-10T00:35:42;1.23;;;0.53;;
10894;SDS011;5500;49.886;8.074;2023-05-10T00:38:10;1.17;;;0.50;;
10894;SDS011;5500;49.886;8.074;2023-05-10T00:40:38;2.27;;;0.50;;
10894;SDS011;5500;49.886;8.074;2023-05-10T00:43:10;0.40;;;0.40;;
10894;SDS011;5500;49.886;8.074;2023-05-10T00:45:37;0.33;;;0.30;;
10894;SDS011;5500;49.886;8.074;2023-05-10T00:48:06;0.83;;;0.57;;
10894;SDS011;5500;49.886;8.074;2023-05-10T00:50:34;2.23;;;0.63;;
10894;SDS011;5500;49.886;8.074;2023-05-10T00:53:02;1.30;;;0.60;;
10894;SDS011;5500;49.886;8.074;2023-05-10T00:55:30;1.20;;;0.70;;
10894;SDS011;5500;49.886;8.074;2023-05-10T00:57:58;0.60;;;0.60;;
10894;SDS011;5500;49.886;8.074;2023-05-10T01:00:27;0.60;;;0.60;;
10894;SDS011;5500;49.886;8.074;2023-05-10T01:02:55;1.70;;;0.60;;
10894;SDS011;5500;49.886;8.074;2023-05-10T01:05:23;0.50;;;0.50;;
10894;SDS011;5500;49.886;8.074;2023-05-10T01:07:51;1.80;;;0.53;;
10894;SDS011;5500;49.886;8.074;2023-05-10T01:10:18;0.47;;;0.47;;
10894;SDS011;5500;49.886;8.074;2023-05-10T01:12:46;2.90;;;0.80;;
10894;SDS011;5500;49.886;8.074;2023-05-10T01:15:14;2.63;;;0.60;;
10894;SDS011;5500;49.886;8.074;2023-05-10T01:17:44;1.57;;;0.67;;
10894;SDS011;5500;49.886;8.074;2023-05-10T01:20:13;0.80;;;0.50;;
10894;SDS011;5500;49.886;8.074;2023-05-10T01:25:43;0.57;;;0.50;;
10894;SDS011;5500;49.886;8.074;2023-05-10T01:28:39;1.70;;;0.50;;
10894;SDS011;5500;49.886;8.074;2023-05-10T01:31:22;1.73;;;0.57;;
10894;SDS011;5500;49.886;8.074;2023-05-10T01:34:00;0.63;;;0.60;;
10894;SDS011;5500;49.886;8.074;2023-05-10T01:36:30;0.30;;;0.30;;
10894;SDS011;5500;49.886;8.074;2023-05-10T01:39:01;1.87;;;0.70;;
10894;SDS011;5500;49.886;8.074;2023-05-10T01:41:36;0.70;;;0.70;;
10894;SDS011;5500;49.886;8.074;2023-05-10T01:44:09;1.43;;;0.40;;
10894;SDS011;5500;49.886;8.074;2023-05-10T01:46:43;2.50;;;0.83;;
10894;SDS011;5500;49.886;8.074;2023-05-10T01:49:18;1.07;;;0.60;;
10894;SDS011;5500;49.886;8.074;2023-05-10T01:51:49;1.13;;;0.60;;
10894;SDS011;5500;49.886;8.074;2023-05-10T01:54:19;2.83;;;1.17;;
10894;SDS011;5500;49.886;8.074;2023-05-10T01:56:47;1.63;;;0.87;;
10894;SDS011;5500;49.886;8.074;2023-05-10T01:59:18;0.93;;;0.53;;
10894;SDS011;5500;49.886;8.074;2023-05-10T02:01:46;0.83;;;0.50;;
10894;SDS011;5500;49.886;8.074;2023-05-10T02:04:15;1.17;;;0.57;;
10894;SDS011;5500;49.886;8.074;2023-05-10T02:06:45;1.93;;;0.70;;
10894;SDS011;5500;49.886;8.074;2023-05-10T02:09:14;1.03;;;0.60;;
10894;SDS011;5500;49.886;8.074;2023-05-10T02:11:42;2.50;;;0.87;;
10894;SDS011;5500;49.886;8.074;2023-05-10T02:14:10;2.60;;;0.67;;
10894;SDS011;5500;49.886;8.074;2023-05-10T02:16:38;1.70;;;0.60;;
10894;SDS011;5500;49.886;8.074;2023-05-10T02:19:06;1.70;;;0.83;;
10894;SDS011;5500;49.886;8.074;2023-05-10T02:21:36;2.40;;;0.70;;
10894;SDS011;5500;49.886;8.074;2023-05-10T02:24:05;4.50;;;0.90;;
10894;SDS011;5500;49.886;8.074;2023-05-10T02:26:33;0.57;;;0.57;;
10894;SDS011;5500;49.886;8.074;2023-05-10T02:29:02;2.87;;;0.70;;
10894;SDS011;5500;49.886;8.074;2023-05-10T02:31:31;0.60;;;0.50;;
10894;SDS011;5500;49.886;8.074;2023-05-10T02:33:59;1.90;;;0.70;;
10894;SDS011;5500;49.886;8.074;2023-05-10T02:36:27;0.93;;;0.87;;
10894;SDS011;5500;49.886;8.074;2023-05-10T02:38:57;4.90;;;1.07;;
10894;SDS011;5500;49.886;8.074;2023-05-10T02:41:25;3.10;;;1.00;;
10894;SDS011;5500;49.886;8.074;2023-05-10T02:43:55;1.30;;;1.20;;
10894;SDS011;5500;49.886;8.074;2023-05-10T02:46:24;1.77;;;1.10;;
10894;SDS011;5500;49.886;8.074;2023-05-10T02:48:52;1.10;;;1.10;;
10894;SDS011;5500;49.886;8.074;2023-05-10T02:51:20;5.53;;;1.10;;
10894;SDS011;5500;49.886;8.074;2023-05-10T02:53:52;1.50;;;1.40;;
10894;SDS011;5500;49.886;8.074;2023-05-10T02:56:23;1.40;;;1.30;;
10894;SDS011;5500;49.886;8.074;2023-05-10T02:58:52;2.47;;;1.40;;
10894;SDS011;5500;49.886;8.074;2023-05-10T03:01:20;1.40;;;1.30;;
10894;SDS011;5500;49.886;8.074;2023-05-10T03:03:48;1.10;;;1.10;;
10894;SDS011;5500;49.886;8.074;2023-05-10T03:06:15;1.63;;;0.73;;
10894;SDS011;5500;49.886;8.074;2023-05-10T03:08:43;2.03;;;1.00;;
10894;SDS011;5500;49.886;8.074;2023-05-10T03:11:23;1.10;;;1.00;;
10894;SDS011;5500;49.886;8.074;2023-05-10T03:14:03;1.30;;;1.20;;
10894;SDS011;5500;49.886;8.074;2023-05-10T03:16:40;1.10;;;1.00;;
10894;SDS011;5500;49.886;8.074;2023-05-10T03:19:12;1.67;;;1.57;;
10894;SDS011;5500;49.886;8.074;2023-05-10T03:21:43;2.67;;;1.40;;
10894;SDS011;5500;49.886;8.074;2023-05-10T03:24:15;2.13;;;1.20;;
10894;SDS011;5500;49.886;8.074;2023-05-10T03:26:45;1.60;;;1.50;;
10894;SDS011;5500;49.886;8.074;2023-05-10T03:29:13;3.63;;;1.30;;
10894;SDS011;5500;49.886;8.074;2023-05-10T03:31:41;1.40;;;1.30;;
10894;SDS011;5500;49.886;8.074;2023-05-10T03:34:09;4.60;;;1.50;;
10894;SDS011;5500;49.886;8.074;2023-05-10T03:36:37;5.83;;;1.43;;
10894;SDS011;5500;49.886;8.074;2023-05-10T03:39:05;1.40;;;1.30;;
10894;SDS011;5500;49.886;8.074;2023-05-10T03:41:32;1.43;;;1.20;;
10894;SDS011;5500;49.886;8.074;2023-05-10T03:44:01;3.70;;;1.37;;
10894;SDS011;5500;49.886;8.074;2023-05-10T03:46:30;1.53;;;1.40;;
10894;SDS011;5500;49.886;8.074;2023-05-10T03:49:05;6.50;;;1.47;;
10894;SDS011;5500;49.886;8.074;2023-05-10T03:51:33;2.13;;;1.30;;
10894;SDS011;5500;49.886;8.074;2023-05-10T03:54:01;1.80;;;1.63;;
10894;SDS011;5500;49.886;8.074;2023-05-10T03:56:28;1.37;;;1.20;;
10894;SDS011;5500;49.886;8.074;2023-05-10T03:58:56;3.67;;;1.30;;
10894;SDS011;5500;49.886;8.074;2023-05-10T04:01:25;1.40;;;1.20;;
10894;SDS011;5500;49.886;8.074;2023-05-10T04:03:52;4.53;;;1.43;;
10894;SDS011;5500;49.886;8.074;2023-05-10T04:06:20;2.27;;;1.37;;
10894;SDS011;5500;49.886;8.074;2023-05-10T04:08:48;1.40;;;1.30;;
10894;SDS011;5500;49.886;8.074;2023-05-10T04:11:16;1.63;;;1.50;;
10894;SDS011;5500;49.886;8.074;2023-05-10T04:13:43;1.63;;;1.47;;
10894;SDS011;5500;49.886;8.074;2023-05-10T04:16:11;2.17;;;1.47;;
10894;SDS011;5500;49.886;8.074;2023-05-10T04:18:40;2.50;;;1.70;;
10894;SDS011;5500;49.886;8.074;2023-05-10T04:21:10;4.13;;;1.90;;
10894;SDS011;5500;49.886;8.074;2023-05-10T04:23:38;2.60;;;1.80;;
10894;SDS011;5500;49.886;8.074;2023-05-10T04:26:06;3.33;;;1.60;;
10894;SDS011;5500;49.886;8.074;2023-05-10T04:28:34;4.87;;;1.90;;
10894;SDS011;5500;49.886;8.074;2023-05-10T04:31:02;2.27;;;1.70;;
10894;SDS011;5500;49.886;8.074;2023-05-10T04:33:30;3.23;;;1.90;;
10894;SDS011;5500;49.886;8.074;2023-05-10T04:35:59;4.20;;;1.83;;
10894;SDS011;5500;49.886;8.074;2023-05-10T04:38:27;2.23;;;2.00;;
10894;SDS011;5500;49.886;8.074;2023-05-10T04:41:03;2.33;;;1.90;;
10894;SDS011;5500;49.886;8.074;2023-05-10T04:43:31;4.70;;;2.33;;
10894;SDS011;5500;49.886;8.074;2023-05-10T04:45:58;2.63;;;1.97;;
10894;SDS011;5500;49.886;8.074;2023-05-10T04:48:26;2.97;;;1.97;;
10894;SDS011;5500;49.886;8.074;2023-05-10T04:50:54;4.03;;;1.93;;
10894;SDS011;5500;49.886;8.074;2023-05-10T04:53:23;4.67;;;2.37;;
10894;SDS011;5500;49.886;8.074;2023-05-10T04:55:51;3.10;;;2.00;;
10894;SDS011;5500;49.886;8.074;2023-05-10T04:58:19;4.03;;;2.20;;
10894;SDS011;5500;49.886;8.074;2023-05-10T05:00:47;4.30;;;1.80;;
10894;SDS011;5500;49.886;8.074;2023-05-10T05:03:14;4.27;;;2.00;;
10894;SDS011;5500;49.886;8.074;2023-05-10T05:05:43;4.27;;;1.90;;
10894;SDS011;5500;49.886;8.074;2023-05-10T05:08:10;3.33;;;2.10;;
10894;SDS011;5500;49.886;8.074;2023-05-10T05:10:40;3.90;;;2.13;;
10894;SDS011;5500;49.886;8.074;2023-05-10T05:13:07;3.10;;;1.90;;
10894;SDS011;5500;49.886;8.074;2023-05-10T05:15:35;3.93;;;2.20;;
10894;SDS011;5500;49.886;8.074;2023-05-10T05:18:03;4.10;;;2.03;;
10894;SDS011;5500;49.886;8.074;2023-05-10T05:20:31;4.20;;;2.33;;
10894;SDS011;5500;49.886;8.074;2023-05-10T05:22:59;3.60;;;1.93;;
10894;SDS011;5500;49.886;8.074;2023-05-10T05:25:27;3.17;;;2.00;;
10894;SDS011;5500;49.886;8.074;2023-05-10T05:27:56;4.10;;;2.20;;
10894;SDS011;5500;49.886;8.074;2023-05-10T05:30:23;3.67;;;2.20;;
10894;SDS011;5500;49.886;8.074;2023-05-10T05:32:51;7.33;;;2.00;;
10894;SDS011;5500;49.886;8.074;2023-05-10T05:35:19;3.70;;;1.80;;
10894;SDS011;5500;49.886;8.074;2023-05-10T05:37:46;2.73;;;1.87;;
10894;SDS011;5500;49.886;8.074;2023-05-10T05:40:14;3.13;;;2.10;;
10894;SDS011;5500;49.886;8.074;2023-05-10T05:42:42;2.70;;;1.77;;
10894;SDS011;5500;49.886;8.074;2023-05-10T05:45:11;4.97;;;1.90;;
10894;SDS011;5500;49.886;8.074;2023-05-10T05:47:40;3.73;;;2.20;;
10894;SDS011;5500;49.886;8.074;2023-05-10T05:50:08;4.30;;;2.30;;
10894;SDS011;5500;49.886;8.074;2023-05-10T05:52:36;5.20;;;2.10;;
10894;SDS011;5500;49.886;8.074;2023-05-10T05:55:04;4.70;;;1.90;;
10894;SDS011;5500;49.886;8.074;2023-05-10T05:57:32;3.13;;;1.93;;
10894;SDS011;5500;49.886;8.074;2023-05-10T05:59:59;2.00;;;1.80;;
10894;SDS011;5500;49.886;8.074;2023-05-10T06:02:30;4.67;;;2.10;;
10894;SDS011;5500;49.886;8.074;2023-05-10T06:04:57;4.80;;;2.03;;
10894;SDS011;5500;49.886;8.074;2023-05-10T06:07:25;3.93;;;2.00;;
10894;SDS011;5500;49.886;8.074;2023-05-10T06:09:53;4.20;;;2.20;;
10894;SDS011;5500;49.886;8.074;2023-05-10T06:12:20;4.40;;;1.70;;
10894;SDS011;5500;49.886;8.074;2023-05-10T06:14:48;4.33;;;2.10;;
10894;SDS011;5500;49.886;8.074;2023-05-10T06:17:15;4.20;;;2.10;;
10894;SDS011;5500;49.886;8.074;2023-05-10T06:19:44;2.70;;;1.97;;
10894;SDS011;5500;49.886;8.074;2023-05-10T06:22:12;3.40;;;2.13;;
10894;SDS011;5500;49.886;8.074;2023-05-10T06:24:39;3.40;;;2.10;;
10894;SDS011;5500;49.886;8.074;2023-05-10T06:27:07;3.00;;;2.07;;
10894;SDS011;5500;49.886;8.074;2023-05-10T06:29:35;1.87;;;1.63;;
10894;SDS011;5500;49.886;8.074;2023-05-10T06:32:02;4.47;;;2.10;;
10894;SDS011;5500;49.886;8.074;2023-05-10T06:34:30;3.30;;;1.90;;
10894;SDS011;5500;49.886;8.074;2023-05-10T06:37:00;3.30;;;2.10;;
10894;SDS011;5500;49.886;8.074;2023-05-10T06:39:29;3.77;;;2.17;;
10894;SDS011;5500;49.886;8.074;2023-05-10T06:41:57;1.53;;;1.43;;
10894;SDS011;5500;49.886;8.074;2023-05-10T06:44:24;2.67;;;1.73;;
10894;SDS011;5500;49.886;8.074;2023-05-10T06:46:52;4.50;;;2.27;;
10894;SDS011;5500;49.886;8.074;2023-05-10T06:49:21;6.50;;;1.80;;
10894;SDS011;5500;49.886;8.074;2023-05-10T06:51:49;3.13;;;2.30;;
10894;SDS011;5500;49.886;8.074;2023-05-10T06:54:17;3.57;;;1.90;;
10894;SDS011;5500;49.886;8.074;2023-05-10T06:56:45;2.80;;;1.97;;
10894;SDS011;5500;49.886;8.074;2023-05-10T06:59:13;2.53;;;1.87;;
10894;SDS011;5500;49.886;8.074;2023-05-10T07:01:41;2.17;;;1.80;;
10894;SDS011;5500;49.886;8.074;2023-05-10T07:04:09;3.13;;;1.90;;
10894;SDS011;5500;49.886;8.074;2023-05-10T07:06:36;2.00;;;1.80;;
10894;SDS011;5500;49.886;8.074;2023-05-10T07:09:04;3.97;;;2.00;;
10894;SDS011;5500;49.886;8.074;2023-05-10T07:11:33;4.47;;;1.77;;
10894;SDS011;5500;49.886;8.074;2023-05-10T07:14:01;3.10;;;1.80;;
10894;SDS011;5500;49.886;8.074;2023-05-10T07:16:28;3.87;;;1.70;;
10894;SDS011;5500;49.886;8.074;2023-05-10T07:18:56;2.60;;;1.50;;
10894;SDS011;5500;49.886;8.074;2023-05-10T07:21:24;3.47;;;1.47;;
10894;SDS011;5500;49.886;8.074;2023-05-10T07:23:54;2.07;;;1.30;;
10894;SDS011;5500;49.886;8.074;2023-05-10T07:26:22;2.30;;;1.50;;
10894;SDS011;5500;49.886;8.074;2023-05-10T07:28:51;3.57;;;1.60;;
10894;SDS011;5500;49.886;8.074;2023-05-10T07:31:19;1.93;;;1.50;;
10894;SDS011;5500;49.886;8.074;2023-05-10T07:33:46;3.43;;;1.70;;
10894;SDS011;5500;49.886;8.074;2023-05-10T07:36:14;1.73;;;1.40;;
10894;SDS011;5500;49.886;8.074;2023-05-10T07:38:41;2.77;;;1.27;;
10894;SDS011;5500;49.886;8.074;2023-05-10T07:41:11;4.17;;;1.43;;
10894;SDS011;5500;49.886;8.074;2023-05-10T07:43:39;2.17;;;1.30;;
10894;SDS011;5500;49.886;8.074;2023-05-10T07:46:08;1.93;;;1.50;;
10894;SDS011;5500;49.886;8.074;2023-05-10T07:48:37;2.03;;;1.43;;
10894;SDS011;5500;49.886;8.074;2023-05-10T07:51:04;1.57;;;1.07;;
10894;SDS011;5500;49.886;8.074;2023-05-10T07:53:35;2.10;;;1.40;;
10894;SDS011;5500;49.886;8.074;2023-05-10T07:58:49;1.97;;;1.23;;
10894;SDS011;5500;49.886;8.074;2023-05-10T08:01:18;1.20;;;1.00;;
10894;SDS011;5500;49.886;8.074;2023-05-10T08:03:45;1.83;;;1.30;;
10894;SDS011;5500;49.886;8.074;2023-05-10T08:06:13;3.83;;;1.10;;
10894;SDS011;5500;49.886;8.074;2023-05-10T08:08:41;1.33;;;1.10;;
10894;SDS011;5500;49.886;8.074;2023-05-10T08:11:09;1.90;;;1.13;;
10894;SDS011;5500;49.886;8.074;2023-05-10T08:13:37;1.13;;;1.03;;
10894;SDS011;5500;49.886;8.074;2023-05-10T08:16:04;2.13;;;1.20;;
10894;SDS011;5500;49.886;8.074;2023-05-10T08:18:34;2.57;;;1.10;;
10894;SDS011;5500;49.886;8.074;2023-05-10T08:21:02;1.53;;;1.13;;
10894;SDS011;5500;49.886;8.074;2023-05-10T08:23:30;1.50;;;1.00;;
10894;SDS011;5500;49.886;8.074;2023-05-10T08:25:57;2.20;;;0.90;;
10894;SDS011;5500;49.886;8.074;2023-05-10T08:28:25;1.60;;;1.00;;
10894;SDS011;5500;49.886;8.074;2023-05-10T08:30:53;3.57;;;0.80;;
10894;SDS011;5500;49.886;8.074;2023-05-10T08:33:21;0.87;;;0.87;;
10894;SDS011;5500;49.886;8.074;2023-05-10T08:35:50;1.90;;;0.70;;
10894;SDS011;5500;49.886;8.074;2023-05-10T08:38:18;2.93;;;0.90;;
10894;SDS011;5500;49.886;8.074;2023-05-10T08:40:46;3.60;;;0.90;;
10894;SDS011;5500;49.886;8.074;2023-05-10T08:43:15;1.03;;;0.80;;
10894;SDS011;5500;49.886;8.074;2023-05-10T08:45:43;1.33;;;0.70;;
10894;SDS011;5500;49.886;8.074;2023-05-10T08:48:13;0.60;;;0.60;;
10894;SDS011;5500;49.886;8.074;2023-05-10T08:50:41;2.80;;;0.40;;
10894;SDS011;5500;49.886;8.074;2023-05-10T08:53:11;1.43;;;0.70;;
10894;SDS011;5500;49.886;8.074;2023-05-10T08:55:40;0.50;;;0.50;;
10894;SDS011;5500;49.886;8.074;2023-05-10T08:58:09;0.50;;;0.50;;
10894;SDS011;5500;49.886;8.074;2023-05-10T09:00:36;2.53;;;0.70;;
10894;SDS011;5500;49.886;8.074;2023-05-10T09:03:04;1.20;;;0.70;;
10894;SDS011;5500;49.886;8.074;2023-05-10T09:05:33;0.47;;;0.47;;
10894;SDS011;5500;49.886;8.074;2023-05-10T09:08:01;0.73;;;0.53;;
10894;SDS011;5500;49.886;8.074;2023-05-10T09:10:30;5.60;;;0.77;;
10894;SDS011;5500;49.886;8.074;2023-05-10T09:12:58;2.37;;;0.73;;
10894;SDS011;5500;49.886;8.074;2023-05-10T09:15:26;1.23;;;0.57;;
10894;SDS011;5500;49.886;8.074;2023-05-10T09:17:54;1.70;;;0.77;;
10894;SDS011;5500;49.886;8.074;2023-05-10T09:20:21;2.23;;;0.80;;
10894;SDS011;5500;49.886;8.074;2023-05-10T09:22:49;3.40;;;0.70;;
10894;SDS011;5500;49.886;8.074;2023-05-10T09:25:17;0.67;;;0.60;;
10894;SDS011;5500;49.886;8.074;2023-05-10T09:27:46;0.87;;;0.70;;
10894;SDS011;5500;49.886;8.074;2023-05-10T09:30:15;0.80;;;0.80;;
10894;SDS011;5500;49.886;8.074;2023-05-10T09:32:44;4.97;;;0.90;;
10894;SDS011;5500;49.886;8.074;2023-05-10T09:35:14;1.27;;;0.60;;
10894;SDS011;5500;49.886;8.074;2023-05-10T09:37:43;1.97;;;0.90;;
10894;SDS011;5500;49.886;8.074;2023-05-10T09:40:14;0.93;;;0.70;;
10894;SDS011;5500;49.886;8.074;2023-05-10T09:42:50;1.23;;;0.67;;
10894;SDS011;5500;49.886;8.074;2023-05-10T09:45:20;3.57;;;1.00;;
10894;SDS011;5500;49.886;8.074;2023-05-10T09:47:48;0.40;;;0.40;;
10894;SDS011;5500;49.886;8.074;2023-05-10T09:50:16;1.20;;;0.60;;
10894;SDS011;5500;49.886;8.074;2023-05-10T09:52:47;0.60;;;0.60;;
10894;SDS011;5500;49.886;8.074;2023-05-10T09:55:17;2.73;;;0.80;;
10894;SDS011;5500;49.886;8.074;2023-05-10T09:57:46;0.57;;;0.57;;
10894;SDS011;5500;49.886;8.074;2023-05-10T10:00:19;0.77;;;0.70;;
10894;SDS011;5500;49.886;8.074;2023-05-10T10:02:47;2.20;;;0.70;;
10894;SDS011;5500;49.886;8.074;2023-05-10T10:05:21;0.83;;;0.60;;
10894;SDS011;5500;49.886;8.074;2023-05-10T10:07:48;1.50;;;0.50;;
10894;SDS011;5500;49.886;8.074;2023-05-10T10:10:16;0.70;;;0.70;;
10894;SDS011;5500;49.886;8.074;2023-05-10T10:12:44;0.90;;;0.80;;
10894;SDS011;5500;49.886;8.074;2023-05-10T10:15:12;0.83;;;0.83;;
10894;SDS011;5500;49.886;8.074;2023-05-10T10:17:43;3.03;;;0.83;;
10894;SDS011;5500;49.886;8.074;2023-05-10T10:20:11;0.60;;;0.60;;
10894;SDS011;5500;49.886;8.074;2023-05-10T10:22:39;0.67;;;0.67;;
10894;SDS011;5500;49.886;8.074;2023-05-10T10:25:07;1.23;;;0.77;;
10894;SDS011;5500;49.886;8.074;2023-05-10T10:27:37;0.50;;;0.50;;
10894;SDS011;5500;49.886;8.074;2023-05-10T10:30:13;1.20;;;0.80;;
10894;SDS011;5500;49.886;8.074;2023-05-10T10:35:53;0.60;;;0.60;;
10894;SDS011;5500;49.886;8.074;2023-05-10T10:38:22;1.80;;;0.60;;
10894;SDS011;5500;49.886;8.074;2023-05-10T10:40:57;1.07;;;0.47;;
10894;SDS011;5500;49.886;8.074;2023-05-10T10:43:29;1.20;;;0.53;;
10894;SDS011;5500;49.886;8.074;2023-05-10T10:46:12;0.40;;;0.40;;
10894;SDS011;5500;49.886;8.074;2023-05-10T10:48:43;2.20;;;0.50;;
10894;SDS011;5500;49.886;8.074;2023-05-10T10:51:14;0.60;;;0.60;;
10894;SDS011;5500;49.886;8.074;2023-05-10T10:53:42;2.77;;;0.80;;
10894;SDS011;5500;49.886;8.074;2023-05-10T10:56:11;1.63;;;0.60;;
10894;SDS011;5500;49.886;8.074;2023-05-10T10:58:42;0.60;;;0.60;;
10894;SDS011;5500;49.886;8.074;2023-05-10T11:01:17;1.60;;;0.50;;
10894;SDS011;5500;49.886;8.074;2023-05-10T11:06:47;1.37;;;0.67;;
10894;SDS011;5500;49.886;8.074;2023-05-10T11:09:15;0.50;;;0.50;;
10894;SDS011;5500;49.886;8.074;2023-05-10T11:11:48;1.13;;;0.60;;
10894;SDS011;5500;49.886;8.074;2023-05-10T11:14:19;1.77;;;0.80;;
10894;SDS011;5500;49.886;8.074;2023-05-10T11:16:47;2.07;;;1.07;;
10894;SDS011;5500;49.886;8.074;2023-05-10T11:19:15;0.43;;;0.43;;
10894;SDS011;5500;49.886;8.074;2023-05-10T11:21:46;1.30;;;0.70;;
10894;SDS011;5500;49.886;8.074;2023-05-10T11:24:15;0.60;;;0.60;;
10894;SDS011;5500;49.886;8.074;2023-05-10T11:26:44;2.97;;;0.70;;
10894;SDS011;5500;49.886;8.074;2023-05-10T11:29:12;1.03;;;0.50;;
10894;SDS011;5500;49.886;8.074;2023-05-10T11:31:43;1.97;;;0.70;;
10894;SDS011;5500;49.886;8.074;2023-05-10T11:34:22;2.17;;;0.80;;
10894;SDS011;5500;49.886;8.074;2023-05-10T11:36:52;1.47;;;0.70;;
10894;SDS011;5500;49.886;8.074;2023-05-10T11:39:21;0.90;;;0.67;;
10894;SDS011;5500;49.886;8.074;2023-05-10T11:41:53;0.60;;;0.60;;
10894;SDS011;5500;49.886;8.074;2023-05-10T11:44:20;2.73;;;0.93;;
10894;SDS011;5500;49.886;8.074;2023-05-10T11:46:48;2.07;;;0.80;;
10894;SDS011;5500;49.886;8.074;2023-05-10T11:49:16;2.47;;;1.00;;
10894;SDS011;5500;49.886;8.074;2023-05-10T11:51:43;0.57;;;0.57;;
10894;SDS011;5500;49.886;8.074;2023-05-10T11:54:13;0.70;;;0.70;;
10894;SDS011;5500;49.886;8.074;2023-05-10T11:56:41;1.50;;;0.83;;
10894;SDS011;5500;49.886;8.074;2023-05-10T11:59:09;1.80;;;0.53;;
10894;SDS011;5500;49.886;8.074;2023-05-10T12:01:36;0.80;;;0.57;;
10894;SDS011;5500;49.886;8.074;2023-05-10T12:04:04;0.50;;;0.50;;
10894;SDS011;5500;49.886;8.074;2023-05-10T12:06:33;0.50;;;0.37;;
10894;SDS011;5500;49.886;8.074;2023-05-10T12:09:05;1.03;;;0.50;;
10894;SDS011;5500;49.886;8.074;2023-05-10T12:11:36;1.23;;;0.70;;
10894;SDS011;5500;49.886;8.074;2023-05-10T12:14:08;1.00;;;0.67;;
10894;SDS011;5500;49.886;8.074;2023-05-10T12:16:36;0.93;;;0.60;;
10894;SDS011;5500;49.886;8.074;2023-05-10T12:19:04;1.80;;;0.60;;
10894;SDS011;5500;49.886;8.074;2023-05-10T12:21:32;2.43;;;0.83;;
10894;SDS011;5500;49.886;8.074;2023-05-10T12:24:01;2.20;;;0.80;;
10894;SDS011;5500;49.886;8.074;2023-05-10T12:26:32;2.13;;;0.77;;
10894;SDS011;5500;49.886;8.074;2023-05-10T12:29:14;0.83;;;0.80;;
10894;SDS011;5500;49.886;8.074;2023-05-10T12:31:49;2.20;;;0.70;;
10894;SDS011;5500;49.886;8.074;2023-05-10T12:34:24;2.50;;;0.90;;
10894;SDS011;5500;49.886;8.074;2023-05-10T12:36:53;0.50;;;0.50;;
10894;SDS011;5500;49.886;8.074;2023-05-10T12:39:21;0.87;;;0.73;;
10894;SDS011;5500;49.886;8.074;2023-05-10T12:41:48;0.67;;;0.67;;
10894;SDS011;5500;49.886;8.074;2023-05-10T12:44:17;1.20;;;0.83;;
10894;SDS011;5500;49.886;8.074;2023-05-10T12:46:45;1.87;;;0.67;;
10894;SDS011;5500;49.886;8.074;2023-05-10T12:49:12;1.13;;;0.63;;
10894;SDS011;5500;49.886;8.074;2023-05-10T12:51:40;2.07;;;0.90;;
10894;SDS011;5500;49.886;8.074;2023-05-10T12:54:08;1.47;;;0.80;;
10894;SDS011;5500;49.886;8.074;2023-05-10T12:56:35;0.73;;;0.70;;
10894;SDS011;5500;49.886;8.074;2023-05-10T12:59:03;1.23;;;0.90;;
10894;SDS011;5500;49.886;8.074;2023-05-10T13:01:33;1.03;;;0.73;;
10894;SDS011;5500;49.886;8.074;2023-05-10T13:04:00;0.97;;;0.70;;
10894;SDS011;5500;49.886;8.074;2023-05-10T13:06:28;1.47;;;0.90;;
10894;SDS011;5500;49.886;8.074;2023-05-10T13:08:56;1.27;;;0.70;;
10894;SDS011;5500;49.886;8.074;2023-05-10T13:11:24;2.23;;;0.90;;
10894;SDS011;5500;49.886;8.074;2023-05-10T13:13:52;2.33;;;0.90;;
10894;SDS011;5500;49.886;8.074;2023-05-10T13:16:19;1.33;;;0.93;;
10894;SDS011;5500;49.886;8.074;2023-05-10T13:18:48;1.37;;;0.90;;
10894;SDS011;5500;49.886;8.074;2023-05-10T13:21:16;2.07;;;0.90;;
10894;SDS011;5500;49.886;8.074;2023-05-10T13:23:44;1.07;;;0.83;;
10894;SDS011;5500;49.886;8.074;2023-05-10T13:26:12;2.37;;;0.93;;
10894;SDS011;5500;49.886;8.074;2023-05-10T13:28:40;2.40;;;0.80;;
10894;SDS011;5500;49.886;8.074;2023-05-10T13:31:07;1.63;;;1.03;;
10894;SDS011;5500;49.886;8.074;2023-05-10T13:33:35;2.60;;;0.90;;
10894;SDS011;5500;49.886;8.074;2023-05-10T13:36:05;1.67;;;1.00;;
10894;SDS011;5500;49.886;8.074;2023-05-10T13:38:33;4.13;;;0.90;;
10894;SDS011;5500;49.886;8.074;2023-05-10T13:41:01;1.33;;;0.80;;
10894;SDS011;5500;49.886;8.074;2023-05-10T13:43:29;0.93;;;0.80;;
10894;SDS011;5500;49.886;8.074;2023-05-10T13:45:56;0.80;;;0.80;;
10894;SDS011;5500;49.886;8.074;2023-05-10T13:48:24;1.57;;;0.83;;
10894;SDS011;5500;49.886;8.074;2023-05-10T13:50:52;3.07;;;1.13;;
10894;SDS011;5500;49.886;8.074;2023-05-10T13:53:21;3.13;;;0.97;;
10894;SDS011;5500;49.886;8.074;2023-05-10T13:55:48;4.63;;;1.27;;
10894;SDS011;5500;49.886;8.074;2023-05-10T13:58:16;2.93;;;1.03;;
10894;SDS011;5500;49.886;8.074;2023-05-10T14:00:43;2.07;;;0.90;;
10894;SDS011;5500;49.886;8.074;2023-05-10T14:03:11;1.40;;;0.80;;
10894;SDS011;5500;49.886;8.074;2023-05-10T14:05:39;4.40;;;1.30;;
10894;SDS011;5500;49.886;8.074;2023-05-10T14:08:07;2.33;;;1.10;;
10894;SDS011;5500;49.886;8.074;2023-05-10T14:10:36;3.63;;;1.33;;
10894;SDS011;5500;49.886;8.074;2023-05-10T14:13:04;3.83;;;1.00;;
10894;SDS011;5500;49.886;8.074;2023-05-10T14:15:32;1.67;;;1.10;;
10894;SDS011;5500;49.886;8.074;2023-05-10T14:17:59;2.03;;;1.20;;
10894;SDS011;5500;49.886;8.074;2023-05-10T14:20:27;3.23;;;1.17;;
10894;SDS011;5500;49.886;8.074;2023-05-10T14:22:56;2.87;;;0.97;;
10894;SDS011;5500;49.886;8.074;2023-05-10T14:25:23;2.50;;;1.13;;
10894;SDS011;5500;49.886;8.074;2023-05-10T14:27:53;3.47;;;1.20;;
10894;SDS011;5500;49.886;8.074;2023-05-10T14:30:20;2.93;;;1.20;;
10894;SDS011;5500;49.886;8.074;2023-05-10T14:32:48;4.70;;;1.47;;
10894;SDS011;5500;49.886;8.074;2023-05-10T14:35:16;3.97;;;1.40;;
10894;SDS011;5500;49.886;8.074;2023-05-10T14:37:45;3.73;;;1.27;;
10894;SDS011;5500;49.886;8.074;2023-05-10T14:40:12;2.57;;;1.23;;
10894;SDS011;5500;49.886;8.074;2023-05-10T14:42:41;2.30;;;1.10;;
10894;SDS011;5500;49.886;8.074;2023-05-10T14:45:11;2.77;;;1.53;;
10894;SDS011;5500;49.886;8.074;2023-05-10T14:47:38;7.07;;;1.77;;
10894;SDS011;5500;49.886;8.074;2023-05-10T14:50:06;2.57;;;1.10;;
10894;SDS011;5500;49.886;8.074;2023-05-10T14:52:35;6.93;;;1.40;;
10894;SDS011;5500;49.886;8.074;2023-05-10T14:55:02;2.93;;;1.20;;
10894;SDS011;5500;49.886;8.074;2023-05-10T14:57:30;6.73;;;1.93;;
10894;SDS011;5500;49.886;8.074;2023-05-10T14:59:58;3.40;;;1.70;;
10894;SDS011;5500;49.886;8.074;2023-05-10T15:02:27;6.77;;;2.73;;
10894;SDS011;5500;49.886;8.074;2023-05-10T15:04:56;2.77;;;1.27;;
10894;SDS011;5500;49.886;8.074;2023-05-10T15:07:25;9.80;;;3.00;;
10894;SDS011;5500;49.886;8.074;2023-05-10T15:09:52;7.63;;;2.97;;
10894;SDS011;5500;49.886;8.074;2023-05-10T15:12:20;5.73;;;2.37;;
10894;SDS011;5500;49.886;8.074;2023-05-10T15:14:47;4.00;;;1.40;;
10894;SDS011;5500;49.886;8.074;2023-05-10T15:17:15;6.20;;;1.30;;
10894;SDS011;5500;49.886;8.074;2023-05-10T15:19:45;2.27;;;0.90;;
10894;SDS011;5500;49.886;8.074;2023-05-10T15:22:12;2.97;;;1.00;;